createdAt,value
2023-04-03T00:00:21.096Z,100814.53
2023-04-03T00:02:48.667Z,100811.78
2023-04-03T00:05:16.458Z,100809.22
2023-04-03T00:07:43.975Z,100806.09
2023-04-03T00:10:12.030Z,100808.66
2023-04-03T00:12:39.686Z,100802.06
2023-04-03T00:15:08.282Z,100802.78
2023-04-03T00:17:37.246Z,100798.28
2023-04-03T00:20:05.790Z,100797.41
2023-04-03T00:22:33.440Z,100792.31
2023-04-03T00:25:01.044Z,100790.53
2023-04-03T00:27:28.704Z,100790.34
2023-04-03T00:29:56.264Z,100790.34
2023-04-03T00:32:23.838Z,100794.59
2023-04-03T00:34:52.767Z,100794.75
2023-04-03T00:37:20.481Z,100805.16
2023-04-03T00:39:48.162Z,100798.22
2023-04-03T00:42:15.718Z,100801.44
2023-04-03T00:45:20.463Z,100794.50
2023-04-03T00:47:48.122Z,100800.56
2023-04-03T00:50:17.596Z,100799.69
2023-04-03T00:52:47.235Z,100801.25
2023-04-03T00:55:15.787Z,100808.84
2023-04-03T00:57:44.353Z,100811.47
2023-04-03T01:00:14.583Z,100803.06
2023-04-03T01:02:42.626Z,100807.97
2023-04-03T01:05:12.648Z,100794.25
2023-04-03T01:07:42.142Z,100802.88
2023-04-03T01:10:14.785Z,100801.78
2023-04-03T01:12:46.646Z,100797.22
2023-04-03T01:15:18.874Z,100800.75
2023-04-03T01:17:48.493Z,100805.00
2023-04-03T01:21:09.849Z,100800.03
2023-04-03T01:23:50.744Z,100808.50
2023-04-03T01:26:18.443Z,100809.38
2023-04-03T01:28:46.259Z,100809.22
2023-04-03T01:31:21.985Z,100809.22
2023-04-03T01:33:51.555Z,100808.84
2023-04-03T01:36:23.222Z,100805.41
2023-04-03T01:38:50.890Z,100801.81
2023-04-03T01:41:19.184Z,100804.97
2023-04-03T01:43:48.527Z,100808.13
2023-04-03T01:46:16.338Z,100809.72
2023-04-03T01:48:44.720Z,100817.28
2023-04-03T01:51:14.032Z,100805.91
2023-04-03T01:53:41.650Z,100822.75
2023-04-03T01:56:09.526Z,100818.59
2023-04-03T01:58:37.561Z,100819.41
2023-04-03T02:01:05.652Z,100820.00
2023-04-03T02:03:33.609Z,100825.72
2023-04-03T02:06:01.310Z,100828.88
2023-04-03T02:08:30.268Z,100821.22
2023-04-03T02:10:57.911Z,100822.19
2023-04-03T02:13:25.554Z,100820.25
2023-04-03T02:15:53.126Z,100827.81
2023-04-03T02:18:20.683Z,100830.19
2023-04-03T02:20:49.240Z,100824.09
2023-04-03T02:23:16.840Z,100817.13
2023-04-03T02:25:46.629Z,100816.38
2023-04-03T02:28:14.171Z,100815.28
2023-04-03T02:30:41.801Z,100814.06
2023-04-03T02:33:09.464Z,100817.00
2023-04-03T02:35:37.876Z,100815.97
2023-04-03T02:38:05.575Z,100809.78
2023-04-03T02:40:33.942Z,100808.03
2023-04-03T02:43:02.992Z,100809.56
2023-04-03T02:45:30.693Z,100810.97
2023-04-03T02:47:58.327Z,100808.25
2023-04-03T02:50:25.901Z,100802.94
2023-04-03T02:52:53.489Z,100809.25
2023-04-03T02:55:21.051Z,100812.41
2023-04-03T02:57:51.470Z,100814.06
2023-04-03T03:00:21.762Z,100805.13
2023-04-03T03:02:51.202Z,100809.78
2023-04-03T03:05:19.327Z,100808.97
2023-04-03T03:07:47.001Z,100810.28
2023-04-03T03:10:14.710Z,100810.06
2023-04-03T03:12:42.446Z,100803.03
2023-04-03T03:15:10.574Z,100808.81
2023-04-03T03:17:39.764Z,100813.91
2023-04-03T03:20:08.853Z,100808.72
2023-04-03T03:22:36.710Z,100811.84
2023-04-03T03:25:06.909Z,100818.81
2023-04-03T03:27:34.422Z,100811.78
2023-04-03T03:30:02.046Z,100815.78
2023-04-03T03:32:29.979Z,100811.09
2023-04-03T03:34:58.883Z,100815.88
2023-04-03T03:37:27.893Z,100813.44
2023-04-03T03:39:55.762Z,100810.97
2023-04-03T03:42:23.286Z,100816.84
2023-04-03T03:44:52.704Z,100810.78
2023-04-03T03:47:21.104Z,100820.09
2023-04-03T03:49:48.859Z,100808.34
2023-04-03T03:52:18.778Z,100807.47
2023-04-03T03:54:46.431Z,100814.53
2023-04-03T03:57:14.224Z,100815.56
2023-04-03T03:59:42.701Z,100808.94
2023-04-03T04:02:10.320Z,100812.25
2023-04-03T04:04:37.979Z,100816.44
2023-04-03T04:07:06.328Z,100821.75
2023-04-03T04:09:36.548Z,100820.28
2023-04-03T04:12:04.636Z,100817.03
2023-04-03T04:14:33.928Z,100812.66
2023-04-03T04:17:03.270Z,100817.53
2023-04-03T04:19:31.155Z,100817.53
2023-04-03T04:21:58.749Z,100817.38
2023-04-03T04:24:26.752Z,100814.81
2023-04-03T04:26:57.232Z,100820.66
2023-04-03T04:29:26.179Z,100812.06
2023-04-03T04:31:54.368Z,100821.38
2023-04-03T04:34:23.645Z,100813.91
2023-04-03T04:36:51.579Z,100818.91
2023-04-03T04:39:19.293Z,100817.16
2023-04-03T04:41:47.604Z,100818.91
2023-04-03T04:44:16.841Z,100813.81
2023-04-03T04:46:44.801Z,100814.53
2023-04-03T04:49:12.425Z,100818.31
2023-04-03T04:51:50.930Z,100826.75
2023-04-03T04:54:23.143Z,100828.31
2023-04-03T04:56:51.630Z,100825.19
2023-04-03T04:59:21.963Z,100834.59
2023-04-03T05:01:50.428Z,100832.44
2023-04-03T05:04:19.209Z,100841.06
2023-04-03T05:06:50.546Z,100835.97
2023-04-03T05:09:23.237Z,100844.41
2023-04-03T05:11:52.055Z,100844.88
2023-04-03T05:14:25.121Z,100849.38
2023-04-03T05:16:54.799Z,100851.16
2023-04-03T05:19:25.056Z,100851.84
2023-04-03T05:21:52.915Z,100852.72
2023-04-03T05:24:20.790Z,100857.63
2023-04-03T05:26:48.957Z,100857.63
2023-04-03T05:29:17.335Z,100859.09
2023-04-03T05:31:46.289Z,100864.75
2023-04-03T05:34:15.017Z,100872.00
2023-04-03T05:36:44.125Z,100866.25
2023-04-03T05:39:13.404Z,100870.47
2023-04-03T05:41:44.226Z,100868.69
2023-04-03T05:44:11.901Z,100872.59
2023-04-03T05:46:39.821Z,100874.56
2023-04-03T05:49:11.437Z,100879.09
2023-04-03T05:51:40.330Z,100880.75
2023-04-03T05:54:27.760Z,100871.44
2023-04-03T05:57:02.429Z,100879.28
2023-04-03T05:59:30.651Z,100883.19
2023-04-03T06:01:59.977Z,100881.47
2023-04-03T06:04:29.007Z,100875.78
2023-04-03T06:06:59.220Z,100884.00
2023-04-03T06:09:29.788Z,100881.53
2023-04-03T06:11:59.397Z,100888.69
2023-04-03T06:14:27.610Z,100884.38
2023-04-03T06:16:55.936Z,100891.75
2023-04-03T06:19:24.019Z,100889.09
2023-04-03T06:21:57.012Z,100887.53
2023-04-03T06:24:26.116Z,100882.81
2023-04-03T06:26:54.461Z,100882.31
2023-04-03T06:29:22.568Z,100881.13
2023-04-03T06:31:50.819Z,100885.13
2023-04-03T06:34:18.969Z,100887.78
2023-04-03T06:36:47.149Z,100889.44
2023-04-03T06:39:18.266Z,100887.84
2023-04-03T06:41:46.176Z,100895.81
2023-04-03T06:44:16.614Z,100891.22
2023-04-03T06:46:46.032Z,100898.97
2023-04-03T06:49:13.996Z,100883.75
2023-04-03T06:51:41.602Z,100900.34
2023-04-03T06:54:09.940Z,100897.69
2023-04-03T06:56:38.823Z,100898.06
2023-04-03T06:59:06.410Z,100902.41
2023-04-03T07:01:34.097Z,100909.34
2023-04-03T07:04:01.630Z,100909.28
2023-04-03T07:06:29.169Z,100904.63
2023-04-03T07:08:57.401Z,100914.91
2023-04-03T07:11:25.033Z,100917.22
2023-04-03T07:13:54.640Z,100919.34
2023-04-03T07:16:22.323Z,100912.28
2023-04-03T07:18:50.257Z,100912.91
2023-04-03T07:21:17.894Z,100914.88
2023-04-03T07:23:45.778Z,100922.56
2023-04-03T07:26:13.376Z,100922.72
2023-04-03T07:28:42.239Z,100922.13
2023-04-03T07:31:14.383Z,100926.84
2023-04-03T07:33:42.869Z,100927.59
2023-04-03T07:36:12.661Z,100927.78
2023-04-03T07:38:40.571Z,100934.66
2023-04-03T07:41:08.536Z,100933.84
2023-04-03T07:43:36.202Z,100934.75
2023-04-03T07:46:06.994Z,100934.50
2023-04-03T07:48:36.022Z,100936.25
2023-04-03T07:51:05.212Z,100946.91
2023-04-03T07:53:33.382Z,100937.34
2023-04-03T07:56:03.511Z,100942.47
2023-04-03T07:58:31.910Z,100944.75
2023-04-03T08:00:59.645Z,100948.66
2023-04-03T08:03:27.546Z,100950.06
2023-04-03T08:05:56.887Z,100949.19
2023-04-03T08:08:25.382Z,100954.94
2023-04-03T08:10:54.133Z,100946.72
2023-04-03T08:13:23.198Z,100949.16
2023-04-03T08:15:51.744Z,100955.13
2023-04-03T08:18:19.415Z,100954.56
2023-04-03T08:20:47.122Z,100945.97
2023-04-03T08:23:17.638Z,100954.31
2023-04-03T08:25:47.019Z,100942.63
2023-04-03T08:28:14.671Z,100951.28
2023-04-03T08:31:34.757Z,100948.56
2023-04-03T08:34:02.312Z,100951.88
2023-04-03T08:36:31.127Z,100949.06
2023-04-03T08:38:59.427Z,100944.25
2023-04-03T08:41:33.978Z,100945.31
2023-04-03T08:44:12.773Z,100946.63
2023-04-03T08:46:55.487Z,100942.81
2023-04-03T08:49:28.720Z,100953.94
2023-04-03T08:51:57.930Z,100948.25
2023-04-03T08:54:32.952Z,100949.38
2023-04-03T08:57:06.710Z,100951.44
2023-04-03T08:59:36.543Z,100953.38
2023-04-03T09:02:25.490Z,100951.94
2023-04-03T09:04:53.173Z,100953.13
2023-04-03T09:07:27.933Z,100957.59
2023-04-03T09:09:57.952Z,100957.34
2023-04-03T09:12:30.899Z,100953.59
2023-04-03T09:15:08.414Z,100957.03
2023-04-03T09:17:47.774Z,100945.66
2023-04-03T09:20:24.834Z,100953.13
2023-04-03T09:22:53.742Z,100947.84
2023-04-03T09:25:24.533Z,100956.59
2023-04-03T09:27:53.478Z,100953.50
2023-04-03T09:30:24.389Z,100960.66
2023-04-03T09:32:55.013Z,100955.84
2023-04-03T09:35:32.742Z,100951.13
2023-04-03T09:38:21.939Z,100951.13
2023-04-03T09:40:52.421Z,100953.19
2023-04-03T09:43:28.976Z,100943.84
2023-04-03T09:45:58.281Z,100937.78
2023-04-03T09:48:29.171Z,100946.75
2023-04-03T09:51:00.446Z,100943.28
2023-04-03T09:53:34.632Z,100932.06
2023-04-03T09:56:04.226Z,100944.66
2023-04-03T09:58:46.720Z,100931.69
2023-04-03T10:01:27.375Z,100935.66
2023-04-03T10:04:11.209Z,100935.50
2023-04-03T10:06:44.289Z,100938.78
2023-04-03T10:09:21.754Z,100933.97
2023-04-03T10:12:05.634Z,100932.78
2023-04-03T10:14:33.863Z,100935.50
2023-04-03T10:17:12.145Z,100925.38
2023-04-03T10:19:45.572Z,100923.41
2023-04-03T10:22:20.447Z,100919.72
2023-04-03T10:24:56.213Z,100932.59
2023-04-03T10:27:34.336Z,100927.66
2023-04-03T10:30:10.270Z,100920.53
2023-04-03T10:32:54.667Z,100935.06
2023-04-03T10:35:39.284Z,100929.47
2023-04-03T10:38:17.250Z,100938.09
2023-04-03T10:40:53.158Z,100931.38
2023-04-03T10:43:31.236Z,100925.53
2023-04-03T10:46:04.124Z,100923.78
2023-04-03T10:48:45.821Z,100932.16
2023-04-03T10:51:28.138Z,100930.41
2023-04-03T10:54:02.248Z,100925.53
2023-04-03T10:56:37.698Z,100930.00
2023-04-03T10:59:18.307Z,100934.94
2023-04-03T11:01:49.011Z,100935.53
2023-04-03T11:04:20.380Z,100927.22
2023-04-03T11:06:54.327Z,100931.00
2023-04-03T11:09:27.858Z,100926.91
2023-04-03T11:12:00.109Z,100916.84
2023-04-03T11:14:29.933Z,100931.00
2023-04-03T11:17:07.834Z,100914.78
2023-04-03T11:19:41.055Z,100914.66
2023-04-03T11:22:20.937Z,100917.31
2023-04-03T11:24:58.868Z,100909.63
2023-04-03T11:27:31.685Z,100907.75
2023-04-03T11:30:00.896Z,100911.78
2023-04-03T11:33:02.784Z,100900.63
2023-04-03T11:35:31.255Z,100913.97
2023-04-03T11:38:03.188Z,100903.41
2023-04-03T11:40:33.741Z,100912.72
2023-04-03T11:43:08.557Z,100907.34
2023-04-03T11:45:51.482Z,100914.34
2023-04-03T11:48:54.058Z,100918.09
2023-04-03T11:51:43.114Z,100912.53
2023-04-03T11:54:46.078Z,100916.34
2023-04-03T11:57:47.824Z,100901.31
2023-04-03T12:00:48.042Z,100899.19
2023-04-03T12:03:52.554Z,100906.28
2023-04-03T12:06:59.257Z,100904.94
2023-04-03T12:09:46.489Z,100901.75
2023-04-03T12:12:29.717Z,100890.47
2023-04-03T12:14:57.883Z,100899.84
2023-04-03T12:17:30.292Z,100891.72
2023-04-03T12:19:58.078Z,100897.13
2023-04-03T12:22:25.695Z,100890.47
2023-04-03T12:24:54.916Z,100885.47
2023-04-03T12:27:27.766Z,100878.69
2023-04-03T12:30:02.047Z,100874.75
2023-04-03T12:32:49.288Z,100874.38
2023-04-03T12:35:26.085Z,100876.69
2023-04-03T12:38:26.893Z,100871.78
2023-04-03T12:41:00.761Z,100873.41
2023-04-03T12:43:42.772Z,100873.50
2023-04-03T12:46:17.004Z,100883.44
2023-04-03T12:48:52.494Z,100872.50
2023-04-03T12:51:23.867Z,100876.41
2023-04-03T12:53:58.162Z,100875.59
2023-04-03T12:56:27.566Z,100872.91
2023-04-03T12:58:58.234Z,100863.56
2023-04-03T13:01:28.042Z,100872.09
2023-04-03T13:03:58.805Z,100871.41
2023-04-03T13:06:29.957Z,100862.47
2023-04-03T13:08:59.285Z,100867.84
2023-04-03T13:11:28.966Z,100866.09
2023-04-03T13:14:00.468Z,100866.53
2023-04-03T13:16:28.876Z,100865.84
2023-04-03T13:18:57.145Z,100861.72
2023-04-03T13:21:28.300Z,100859.91
2023-04-03T13:24:07.623Z,100858.66
2023-04-03T13:26:40.011Z,100859.72
2023-04-03T13:31:56.528Z,100861.25
2023-04-03T13:34:27.386Z,100863.84
2023-04-03T13:37:00.005Z,100864.47
2023-04-03T13:39:29.967Z,100863.75
2023-04-03T13:42:02.336Z,100864.38
2023-04-03T13:44:35.442Z,100862.03
2023-04-03T13:47:17.302Z,100853.69
2023-04-03T13:49:46.991Z,100850.16
2023-04-03T13:52:25.868Z,100854.25
2023-04-03T13:54:56.505Z,100858.59
2023-04-03T13:57:24.644Z,100853.31
2023-04-03T13:59:53.969Z,100860.22
2023-04-03T14:02:25.177Z,100862.97
2023-04-03T14:04:59.568Z,100858.06
2023-04-03T14:07:27.959Z,100851.19
2023-04-03T14:09:55.941Z,100854.19
2023-04-03T14:12:31.724Z,100857.19
2023-04-03T14:15:03.125Z,100848.81
2023-04-03T14:17:31.135Z,100843.16
2023-04-03T14:19:59.923Z,100852.69
2023-04-03T14:22:30.158Z,100848.41
2023-04-03T14:24:58.269Z,100839.72
2023-04-03T14:27:29.353Z,100841.25
2023-04-03T14:29:58.556Z,100845.44
2023-04-03T14:32:28.630Z,100835.19
2023-04-03T14:34:57.956Z,100833.31
2023-04-03T14:37:27.922Z,100836.34
2023-04-03T14:39:56.928Z,100829.09
2023-04-03T14:42:27.220Z,100834.75
2023-04-03T14:44:55.199Z,100835.97
2023-04-03T14:47:31.075Z,100828.53
2023-04-03T14:50:01.813Z,100827.81
2023-04-03T14:52:32.568Z,100819.38
2023-04-03T14:55:01.261Z,100816.03
2023-04-03T14:57:30.582Z,100820.72
2023-04-03T14:59:58.544Z,100821.25
2023-04-03T15:02:31.288Z,100817.16
2023-04-03T15:05:01.638Z,100807.72
2023-04-03T15:07:31.473Z,100809.25
2023-04-03T15:09:59.158Z,100808.03
2023-04-03T15:12:26.779Z,100826.44
2023-04-03T15:15:01.159Z,100820.75
2023-04-03T15:17:30.860Z,100810.91
2023-04-03T15:19:58.467Z,100824.19
2023-04-03T15:22:27.369Z,100819.91
2023-04-03T15:24:55.276Z,100822.09
2023-04-03T15:27:23.303Z,100813.16
2023-04-03T15:29:50.916Z,100804.75
2023-04-03T15:32:18.477Z,100809.88
2023-04-03T15:34:46.153Z,100807.28
2023-04-03T15:37:13.727Z,100799.53
2023-04-03T15:39:42.852Z,100815.16
2023-04-03T15:42:10.435Z,100796.09
2023-04-03T15:44:38.137Z,100809.28
2023-04-03T15:47:06.346Z,100807.88
2023-04-03T15:49:34.996Z,100811.06
2023-04-03T15:52:02.943Z,100815.91
2023-04-03T15:54:31.090Z,100801.59
2023-04-03T15:57:00.065Z,100797.28
2023-04-03T15:59:29.862Z,100808.97
2023-04-03T16:01:57.619Z,100803.69
2023-04-03T16:04:25.356Z,100800.34
2023-04-03T16:06:53.094Z,100796.88
2023-04-03T16:09:20.766Z,100810.63
2023-04-03T16:11:48.336Z,100812.66
2023-04-03T16:14:17.527Z,100802.13
2023-04-03T16:16:45.311Z,100801.22
2023-04-03T16:19:13.518Z,100800.19
2023-04-03T16:21:41.058Z,100808.09
2023-04-03T16:24:08.729Z,100796.69
2023-04-03T16:26:36.317Z,100792.72
2023-04-03T16:29:03.903Z,100802.41
2023-04-03T16:31:34.262Z,100794.81
2023-04-03T16:34:02.438Z,100801.69
2023-04-03T16:36:30.262Z,100797.81
2023-04-03T16:38:57.855Z,100796.25
2023-04-03T16:41:25.404Z,100801.16
2023-04-03T16:43:53.013Z,100800.34
2023-04-03T16:46:20.751Z,100801.63
2023-04-03T16:48:49.895Z,100796.00
2023-04-03T16:51:17.454Z,100795.19
2023-04-03T16:53:44.992Z,100804.56
2023-04-03T16:56:12.712Z,100799.25
2023-04-03T16:58:40.254Z,100807.34
2023-04-03T17:01:12.703Z,100811.38
2023-04-03T17:03:40.736Z,100811.44
2023-04-03T17:06:15.567Z,100811.56
2023-04-03T17:08:43.442Z,100803.00
2023-04-03T17:11:12.004Z,100808.13
2023-04-03T17:13:39.643Z,100807.88
2023-04-03T17:16:10.733Z,100802.41
2023-04-03T17:18:39.206Z,100802.31
2023-04-03T17:21:07.404Z,100802.38
2023-04-03T17:23:38.255Z,100807.81
2023-04-03T17:26:06.832Z,100799.38
2023-04-03T17:28:34.456Z,100817.84
2023-04-03T17:31:03.973Z,100810.91
2023-04-03T17:33:32.033Z,100810.69
2023-04-03T17:36:01.329Z,100801.88
2023-04-03T17:38:30.456Z,100804.06
2023-04-03T17:41:00.343Z,100799.72
2023-04-03T17:43:28.692Z,100807.72
2023-04-03T17:46:03.724Z,100803.59
2023-04-03T17:48:32.190Z,100818.09
2023-04-03T17:50:59.833Z,100805.28
2023-04-03T17:53:27.747Z,100810.47
2023-04-03T17:55:55.324Z,100810.84
2023-04-03T17:58:24.204Z,100805.81
2023-04-03T18:00:52.015Z,100808.50
2023-04-03T18:03:19.526Z,100809.16
2023-04-03T18:05:47.120Z,100816.13
2023-04-03T18:08:14.747Z,100814.22
2023-04-03T18:10:42.384Z,100815.03
2023-04-03T18:13:10.630Z,100822.13
2023-04-03T18:15:45.389Z,100820.50
2023-04-03T18:18:13.195Z,100823.84
2023-04-03T18:20:40.778Z,100815.34
2023-04-03T18:23:08.411Z,100824.03
2023-04-03T18:25:37.742Z,100817.28
2023-04-03T18:28:06.650Z,100821.56
2023-04-03T18:30:35.709Z,100825.13
2023-04-03T18:33:04.827Z,100818.44
2023-04-03T18:35:32.554Z,100824.44
2023-04-03T18:38:00.143Z,100823.00
2023-04-03T18:40:27.923Z,100824.22
2023-04-03T18:42:55.482Z,100829.53
2023-04-03T18:45:24.659Z,100827.53
2023-04-03T18:47:52.842Z,100832.94
2023-04-03T18:50:21.900Z,100831.50
2023-04-03T18:52:50.634Z,100833.97
2023-04-03T18:55:18.926Z,100837.56
2023-04-03T18:57:46.528Z,100834.00
2023-04-03T19:00:15.412Z,100840.47
2023-04-03T19:02:43.069Z,100841.81
2023-04-03T19:05:13.742Z,100843.91
2023-04-03T19:07:44.630Z,100847.09
2023-04-03T19:10:17.023Z,100850.03
2023-04-03T19:12:46.314Z,100840.22
2023-04-03T19:15:14.310Z,100845.19
2023-04-03T19:17:41.980Z,100848.13
2023-04-03T19:20:11.137Z,100849.38
2023-04-03T19:22:39.411Z,100857.84
2023-04-03T19:25:09.877Z,100850.72
2023-04-03T19:27:38.293Z,100851.22
2023-04-03T19:30:07.520Z,100850.09
2023-04-03T19:32:35.307Z,100851.31
2023-04-03T19:35:03.289Z,100851.09
2023-04-03T19:37:30.849Z,100855.84
2023-04-03T19:39:58.514Z,100853.75
2023-04-03T19:42:29.852Z,100857.63
2023-04-03T19:44:58.318Z,100856.25
2023-04-03T19:47:26.304Z,100850.72
2023-04-03T19:49:53.852Z,100864.16
2023-04-03T19:52:21.418Z,100853.66
2023-04-03T19:54:50.480Z,100859.78
2023-04-03T19:57:19.297Z,100860.00
2023-04-03T19:59:48.205Z,100856.28
2023-04-03T20:02:16.737Z,100859.53
2023-04-03T20:04:44.301Z,100860.31
2023-04-03T20:07:12.601Z,100860.22
2023-04-03T20:09:40.294Z,100865.16
2023-04-03T20:12:09.460Z,100856.50
2023-04-03T20:14:37.656Z,100853.78
2023-04-03T20:17:06.602Z,100858.47
2023-04-03T20:19:34.089Z,100859.25
2023-04-03T20:22:01.837Z,100857.31
2023-04-03T20:24:29.575Z,100856.34
2023-04-03T20:26:58.539Z,100857.91
2023-04-03T20:29:27.208Z,100860.34
2023-04-03T20:31:55.151Z,100858.00
2023-04-03T20:34:24.307Z,100851.81
2023-04-03T20:36:53.023Z,100853.41
2023-04-03T20:39:23.926Z,100848.91
2023-04-03T20:41:51.725Z,100856.53
2023-04-03T20:44:19.750Z,100857.25
2023-04-03T20:46:53.011Z,100854.19
2023-04-03T20:49:21.909Z,100860.97
2023-04-03T20:51:51.530Z,100864.88
2023-04-03T20:54:19.326Z,100859.22
2023-04-03T20:56:48.193Z,100864.00
2023-04-03T20:59:16.953Z,100856.06
2023-04-03T21:01:44.603Z,100863.22
2023-04-03T21:04:16.991Z,100856.16
2023-04-03T21:07:22.680Z,100867.72
2023-04-03T21:10:28.306Z,100866.72
2023-04-03T21:13:33.624Z,100864.00
2023-04-03T21:16:02.126Z,100863.91
2023-04-03T21:18:43.993Z,100867.13
2023-04-03T21:21:19.737Z,100863.59
2023-04-03T21:23:48.694Z,100866.72
2023-04-03T21:26:17.030Z,100868.69
2023-04-03T21:28:44.773Z,100863.22
2023-04-03T21:31:12.778Z,100862.13
2023-04-03T21:33:42.338Z,100859.84
2023-04-03T21:36:10.390Z,100875.03
2023-04-03T21:38:37.947Z,100866.19
2023-04-03T21:41:05.867Z,100875.50
2023-04-03T21:43:33.398Z,100877.03
2023-04-03T21:46:01.025Z,100870.97
2023-04-03T21:48:30.491Z,100869.13
2023-04-03T21:51:06.516Z,100876.63
2023-04-03T21:53:35.393Z,100874.22
2023-04-03T21:56:03.135Z,100868.03
2023-04-03T21:58:32.244Z,100858.50
2023-04-03T22:01:08.765Z,100867.81
2023-04-03T22:03:36.286Z,100866.63
2023-04-03T22:06:05.977Z,100868.97
2023-04-03T22:08:33.610Z,100859.78
2023-04-03T22:11:02.480Z,100858.66
2023-04-03T22:13:30.344Z,100861.69
2023-04-03T22:15:59.135Z,100860.72
2023-04-03T22:18:27.115Z,100863.50
2023-04-03T22:20:55.572Z,100863.03
2023-04-03T22:23:24.485Z,100863.66
2023-04-03T22:25:59.295Z,100858.56
2023-04-03T22:28:26.998Z,100865.97
2023-04-03T22:30:54.617Z,100870.50
2023-04-03T22:33:22.126Z,100870.09
2023-04-03T22:35:50.534Z,100857.22
2023-04-03T22:38:18.648Z,100865.97
2023-04-03T22:40:47.708Z,100855.38
2023-04-03T22:43:15.238Z,100865.16
2023-04-03T22:45:49.211Z,100859.84
2023-04-03T22:48:17.382Z,100863.34
2023-04-03T22:50:45.088Z,100858.06
2023-04-03T22:53:12.597Z,100858.72
2023-04-03T22:55:40.253Z,100864.28
2023-04-03T22:58:09.146Z,100854.56
2023-04-03T23:00:37.058Z,100853.28
2023-04-03T23:03:04.803Z,100868.06
2023-04-03T23:05:32.401Z,100867.75
2023-04-03T23:07:59.998Z,100864.09
2023-04-03T23:10:27.578Z,100866.22
2023-04-03T23:12:55.287Z,100876.28
2023-04-03T23:15:24.153Z,100869.22
2023-04-03T23:17:51.895Z,100860.81
2023-04-03T23:20:19.450Z,100867.56
2023-04-03T23:22:47.039Z,100862.84
2023-04-03T23:25:14.596Z,100858.63
2023-04-03T23:27:42.167Z,100859.19
2023-04-03T23:30:11.021Z,100862.50
2023-04-03T23:32:39.929Z,100875.22
2023-04-03T23:35:08.248Z,100863.06
2023-04-03T23:37:35.885Z,100866.38
2023-04-03T23:40:03.636Z,100870.81
2023-04-03T23:42:31.203Z,100867.94
2023-04-03T23:44:58.761Z,100873.03
2023-04-03T23:47:26.331Z,100864.19
2023-04-03T23:49:55.403Z,100861.53
2023-04-03T23:52:22.978Z,100855.56
2023-04-03T23:54:50.548Z,100861.97
2023-04-03T23:57:18.069Z,100859.44
2023-04-03T23:59:45.698Z,100861.00
